sensor_id;sensor_type;location;lat;lon;timestamp;P1;durP1;ratioP1;P2;durP2;ratioP2
12681;SDS011;6405;59.208;18.216;2023-06-04T00:00:05;1.97;;;1.30;;
12681;SDS011;6405;59.208;18.216;2023-06-04T00:02:32;2.17;;;1.23;;
12681;SDS011;6405;59.208;18.216;2023-06-04T00:04:57;2.37;;;1.50;;
12681;SDS011;6405;59.208;18.216;2023-06-04T00:07:23;3.80;;;1.60;;
12681;SDS011;6405;59.208;18.216;2023-06-04T00:09:49;2.00;;;1.47;;
12681;SDS011;6405;59.208;18.216;2023-06-04T00:12:15;4.83;;;1.77;;
12681;SDS011;6405;59.208;18.216;2023-06-04T00:14:40;2.47;;;1.80;;
12681;SDS011;6405;59.208;18.216;2023-06-04T00:17:08;1.77;;;1.40;;
12681;SDS011;6405;59.208;18.216;2023-06-04T00:19:34;2.50;;;1.67;;
12681;SDS011;6405;59.208;18.216;2023-06-04T00:22:01;1.30;;;1.20;;
12681;SDS011;6405;59.208;18.216;2023-06-04T00:24:26;4.43;;;1.83;;
12681;SDS011;6405;59.208;18.216;2023-06-04T00:26:52;1.60;;;1.40;;
12681;SDS011;6405;59.208;18.216;2023-06-04T00:29:18;2.80;;;1.77;;
12681;SDS011;6405;59.208;18.216;2023-06-04T00:31:43;1.57;;;1.43;;
12681;SDS011;6405;59.208;18.216;2023-06-04T00:34:10;2.17;;;1.60;;
12681;SDS011;6405;59.208;18.216;2023-06-04T00:36:36;3.20;;;1.70;;
12681;SDS011;6405;59.208;18.216;2023-06-04T00:39:01;1.60;;;1.40;;
12681;SDS011;6405;59.208;18.216;2023-06-04T00:41:27;3.13;;;1.60;;
12681;SDS011;6405;59.208;18.216;2023-06-04T00:43:53;3.67;;;1.80;;
12681;SDS011;6405;59.208;18.216;2023-06-04T00:46:25;2.20;;;1.80;;
12681;SDS011;6405;59.208;18.216;2023-06-04T00:48:52;3.87;;;1.80;;
12681;SDS011;6405;59.208;18.216;2023-06-04T00:51:20;2.97;;;2.10;;
12681;SDS011;6405;59.208;18.216;2023-06-04T00:53:48;1.77;;;1.47;;
12681;SDS011;6405;59.208;18.216;2023-06-04T00:56:17;3.17;;;1.83;;
12681;SDS011;6405;59.208;18.216;2023-06-04T00:58:44;2.10;;;1.83;;
12681;SDS011;6405;59.208;18.216;2023-06-04T01:01:27;2.03;;;1.77;;
12681;SDS011;6405;59.208;18.216;2023-06-04T01:04:02;2.63;;;1.60;;
12681;SDS011;6405;59.208;18.216;2023-06-04T01:06:40;1.93;;;1.63;;
12681;SDS011;6405;59.208;18.216;2023-06-04T01:09:12;3.07;;;2.23;;
12681;SDS011;6405;59.208;18.216;2023-06-04T01:11:39;2.10;;;1.80;;
12681;SDS011;6405;59.208;18.216;2023-06-04T01:14:06;2.27;;;1.50;;
12681;SDS011;6405;59.208;18.216;2023-06-04T01:16:39;1.60;;;1.50;;
12681;SDS011;6405;59.208;18.216;2023-06-04T01:19:19;1.90;;;1.50;;
12681;SDS011;6405;59.208;18.216;2023-06-04T01:22:01;2.63;;;1.60;;
12681;SDS011;6405;59.208;18.216;2023-06-04T01:24:29;1.43;;;1.30;;
12681;SDS011;6405;59.208;18.216;2023-06-04T01:27:01;1.93;;;1.50;;
12681;SDS011;6405;59.208;18.216;2023-06-04T01:29:30;1.80;;;1.50;;
12681;SDS011;6405;59.208;18.216;2023-06-04T01:31:57;5.43;;;1.70;;
12681;SDS011;6405;59.208;18.216;2023-06-04T01:34:24;1.90;;;1.40;;
12681;SDS011;6405;59.208;18.216;2023-06-04T01:36:50;3.87;;;1.43;;
12681;SDS011;6405;59.208;18.216;2023-06-04T01:39:15;2.13;;;1.70;;
12681;SDS011;6405;59.208;18.216;2023-06-04T01:41:42;2.97;;;1.30;;
12681;SDS011;6405;59.208;18.216;2023-06-04T01:44:07;1.10;;;0.90;;
12681;SDS011;6405;59.208;18.216;2023-06-04T01:46:33;1.73;;;1.00;;
12681;SDS011;6405;59.208;18.216;2023-06-04T01:48:58;1.10;;;0.90;;
12681;SDS011;6405;59.208;18.216;2023-06-04T01:51:24;0.90;;;0.80;;
12681;SDS011;6405;59.208;18.216;2023-06-04T01:53:50;3.40;;;1.10;;
12681;SDS011;6405;59.208;18.216;2023-06-04T01:56:15;2.00;;;1.10;;
12681;SDS011;6405;59.208;18.216;2023-06-04T01:58:42;2.90;;;1.00;;
12681;SDS011;6405;59.208;18.216;2023-06-04T02:01:07;2.77;;;1.10;;
12681;SDS011;6405;59.208;18.216;2023-06-04T02:03:34;2.47;;;0.93;;
12681;SDS011;6405;59.208;18.216;2023-06-04T02:06:04;1.17;;;1.00;;
12681;SDS011;6405;59.208;18.216;2023-06-04T02:08:32;1.30;;;0.80;;
12681;SDS011;6405;59.208;18.216;2023-06-04T02:10:59;2.87;;;1.57;;
12681;SDS011;6405;59.208;18.216;2023-06-04T02:13:24;1.30;;;0.80;;
12681;SDS011;6405;59.208;18.216;2023-06-04T02:15:50;1.10;;;1.00;;
12681;SDS011;6405;59.208;18.216;2023-06-04T02:18:17;1.00;;;0.90;;
12681;SDS011;6405;59.208;18.216;2023-06-04T02:20:46;1.30;;;1.00;;
12681;SDS011;6405;59.208;18.216;2023-06-04T02:23:12;3.20;;;0.80;;
12681;SDS011;6405;59.208;18.216;2023-06-04T02:25:39;1.33;;;0.80;;
12681;SDS011;6405;59.208;18.216;2023-06-04T02:28:07;2.43;;;1.20;;
12681;SDS011;6405;59.208;18.216;2023-06-04T02:30:33;1.17;;;0.97;;
12681;SDS011;6405;59.208;18.216;2023-06-04T02:32:59;2.73;;;1.00;;
12681;SDS011;6405;59.208;18.216;2023-06-04T02:35:26;1.30;;;0.90;;
12681;SDS011;6405;59.208;18.216;2023-06-04T02:37:53;2.83;;;1.27;;
12681;SDS011;6405;59.208;18.216;2023-06-04T02:40:19;1.20;;;1.07;;
12681;SDS011;6405;59.208;18.216;2023-06-04T02:42:45;1.57;;;1.00;;
12681;SDS011;6405;59.208;18.216;2023-06-04T02:45:11;1.17;;;1.00;;
12681;SDS011;6405;59.208;18.216;2023-06-04T02:47:37;1.93;;;0.80;;
12681;SDS011;6405;59.208;18.216;2023-06-04T02:50:02;1.37;;;1.10;;
12681;SDS011;6405;59.208;18.216;2023-06-04T02:52:28;2.10;;;0.90;;
12681;SDS011;6405;59.208;18.216;2023-06-04T02:54:55;1.10;;;0.90;;
12681;SDS011;6405;59.208;18.216;2023-06-04T02:57:22;2.03;;;0.93;;
12681;SDS011;6405;59.208;18.216;2023-06-04T02:59:47;2.00;;;1.37;;
12681;SDS011;6405;59.208;18.216;2023-06-04T03:02:13;1.10;;;0.90;;
12681;SDS011;6405;59.208;18.216;2023-06-04T03:04:40;2.23;;;1.07;;
12681;SDS011;6405;59.208;18.216;2023-06-04T03:07:07;1.23;;;0.97;;
12681;SDS011;6405;59.208;18.216;2023-06-04T03:09:36;2.60;;;1.10;;
12681;SDS011;6405;59.208;18.216;2023-06-04T03:12:02;2.30;;;1.60;;
12681;SDS011;6405;59.208;18.216;2023-06-04T03:14:29;1.97;;;1.20;;
12681;SDS011;6405;59.208;18.216;2023-06-04T03:17:02;1.37;;;0.90;;
12681;SDS011;6405;59.208;18.216;2023-06-04T03:19:39;2.30;;;1.30;;
12681;SDS011;6405;59.208;18.216;2023-06-04T03:22:06;1.43;;;1.30;;
12681;SDS011;6405;59.208;18.216;2023-06-04T03:24:39;1.83;;;0.90;;
12681;SDS011;6405;59.208;18.216;2023-06-04T03:27:06;1.20;;;1.10;;
12681;SDS011;6405;59.208;18.216;2023-06-04T03:29:32;2.43;;;1.30;;
12681;SDS011;6405;59.208;18.216;2023-06-04T03:31:59;1.50;;;1.20;;
12681;SDS011;6405;59.208;18.216;2023-06-04T03:34:25;1.50;;;1.00;;
12681;SDS011;6405;59.208;18.216;2023-06-04T03:36:52;1.50;;;1.10;;
12681;SDS011;6405;59.208;18.216;2023-06-04T03:39:21;1.17;;;0.93;;
12681;SDS011;6405;59.208;18.216;2023-06-04T03:41:47;1.80;;;0.90;;
12681;SDS011;6405;59.208;18.216;2023-06-04T03:44:13;1.90;;;1.00;;
12681;SDS011;6405;59.208;18.216;2023-06-04T03:46:43;0.67;;;0.60;;
12681;SDS011;6405;59.208;18.216;2023-06-04T03:49:09;1.20;;;0.70;;
12681;SDS011;6405;59.208;18.216;2023-06-04T03:51:36;0.80;;;0.67;;
12681;SDS011;6405;59.208;18.216;2023-06-04T03:54:06;2.33;;;0.60;;
12681;SDS011;6405;59.208;18.216;2023-06-04T03:56:32;0.80;;;0.50;;
12681;SDS011;6405;59.208;18.216;2023-06-04T03:58:57;0.83;;;0.70;;
12681;SDS011;6405;59.208;18.216;2023-06-04T04:01:23;1.07;;;0.50;;
12681;SDS011;6405;59.208;18.216;2023-06-04T04:03:52;0.90;;;0.50;;
12681;SDS011;6405;59.208;18.216;2023-06-04T04:06:18;0.50;;;0.50;;
12681;SDS011;6405;59.208;18.216;2023-06-04T04:08:45;1.57;;;0.60;;
12681;SDS011;6405;59.208;18.216;2023-06-04T04:11:11;0.37;;;0.37;;
12681;SDS011;6405;59.208;18.216;2023-06-04T04:13:40;0.40;;;0.40;;
12681;SDS011;6405;59.208;18.216;2023-06-04T04:16:06;0.50;;;0.40;;
12681;SDS011;6405;59.208;18.216;2023-06-04T04:18:32;0.70;;;0.40;;
12681;SDS011;6405;59.208;18.216;2023-06-04T04:20:59;1.93;;;0.40;;
12681;SDS011;6405;59.208;18.216;2023-06-04T04:23:24;0.70;;;0.50;;
12681;SDS011;6405;59.208;18.216;2023-06-04T04:25:50;2.17;;;0.70;;
12681;SDS011;6405;59.208;18.216;2023-06-04T04:28:16;0.47;;;0.40;;
12681;SDS011;6405;59.208;18.216;2023-06-04T04:30:42;0.70;;;0.40;;
12681;SDS011;6405;59.208;18.216;2023-06-04T04:33:09;0.40;;;0.40;;
12681;SDS011;6405;59.208;18.216;2023-06-04T04:35:36;1.33;;;0.40;;
12681;SDS011;6405;59.208;18.216;2023-06-04T04:38:02;0.50;;;0.50;;
12681;SDS011;6405;59.208;18.216;2023-06-04T04:40:30;1.07;;;0.50;;
12681;SDS011;6405;59.208;18.216;2023-06-04T04:42:57;1.37;;;0.50;;
12681;SDS011;6405;59.208;18.216;2023-06-04T04:45:23;0.90;;;0.60;;
12681;SDS011;6405;59.208;18.216;2023-06-04T04:47:49;1.27;;;0.70;;
12681;SDS011;6405;59.208;18.216;2023-06-04T04:50:16;0.97;;;0.60;;
12681;SDS011;6405;59.208;18.216;2023-06-04T04:52:42;0.50;;;0.40;;
12681;SDS011;6405;59.208;18.216;2023-06-04T04:55:08;0.50;;;0.50;;
12681;SDS011;6405;59.208;18.216;2023-06-04T04:57:34;1.73;;;0.50;;
12681;SDS011;6405;59.208;18.216;2023-06-04T05:00:00;2.20;;;0.60;;
12681;SDS011;6405;59.208;18.216;2023-06-04T05:02:27;0.80;;;0.60;;
12681;SDS011;6405;59.208;18.216;2023-06-04T05:04:53;2.33;;;0.40;;
12681;SDS011;6405;59.208;18.216;2023-06-04T05:07:18;1.63;;;0.63;;
12681;SDS011;6405;59.208;18.216;2023-06-04T05:09:46;0.60;;;0.50;;
12681;SDS011;6405;59.208;18.216;2023-06-04T05:12:12;0.67;;;0.40;;
12681;SDS011;6405;59.208;18.216;2023-06-04T05:14:37;0.70;;;0.57;;
12681;SDS011;6405;59.208;18.216;2023-06-04T05:17:03;0.60;;;0.40;;
12681;SDS011;6405;59.208;18.216;2023-06-04T05:19:29;0.97;;;0.50;;
12681;SDS011;6405;59.208;18.216;2023-06-04T05:21:57;0.50;;;0.40;;
12681;SDS011;6405;59.208;18.216;2023-06-04T05:24:24;0.50;;;0.40;;
12681;SDS011;6405;59.208;18.216;2023-06-04T05:26:51;0.60;;;0.40;;
12681;SDS011;6405;59.208;18.216;2023-06-04T05:29:16;2.50;;;0.87;;
12681;SDS011;6405;59.208;18.216;2023-06-04T05:31:42;0.70;;;0.50;;
12681;SDS011;6405;59.208;18.216;2023-06-04T05:34:08;1.43;;;0.40;;
12681;SDS011;6405;59.208;18.216;2023-06-04T05:36:34;0.43;;;0.30;;
12681;SDS011;6405;59.208;18.216;2023-06-04T05:39:00;2.43;;;0.50;;
12681;SDS011;6405;59.208;18.216;2023-06-04T05:41:26;0.93;;;0.47;;
12681;SDS011;6405;59.208;18.216;2023-06-04T05:43:52;1.90;;;0.43;;
12681;SDS011;6405;59.208;18.216;2023-06-04T05:46:18;0.70;;;0.40;;
12681;SDS011;6405;59.208;18.216;2023-06-04T05:48:44;0.60;;;0.50;;
12681;SDS011;6405;59.208;18.216;2023-06-04T05:51:12;1.33;;;0.20;;
12681;SDS011;6405;59.208;18.216;2023-06-04T05:53:38;0.60;;;0.40;;
12681;SDS011;6405;59.208;18.216;2023-06-04T05:56:04;0.40;;;0.40;;
12681;SDS011;6405;59.208;18.216;2023-06-04T05:58:32;0.87;;;0.30;;
12681;SDS011;6405;59.208;18.216;2023-06-04T06:00:58;0.40;;;0.20;;
12681;SDS011;6405;59.208;18.216;2023-06-04T06:03:24;3.70;;;0.40;;
12681;SDS011;6405;59.208;18.216;2023-06-04T06:05:52;0.37;;;0.30;;
12681;SDS011;6405;59.208;18.216;2023-06-04T06:08:19;0.40;;;0.40;;
12681;SDS011;6405;59.208;18.216;2023-06-04T06:10:45;1.27;;;0.50;;
12681;SDS011;6405;59.208;18.216;2023-06-04T06:13:11;0.63;;;0.37;;
12681;SDS011;6405;59.208;18.216;2023-06-04T06:15:36;0.50;;;0.43;;
12681;SDS011;6405;59.208;18.216;2023-06-04T06:18:02;2.27;;;0.40;;
12681;SDS011;6405;59.208;18.216;2023-06-04T06:20:28;0.80;;;0.30;;
12681;SDS011;6405;59.208;18.216;2023-06-04T06:22:54;0.40;;;0.30;;
12681;SDS011;6405;59.208;18.216;2023-06-04T06:25:20;0.20;;;0.20;;
12681;SDS011;6405;59.208;18.216;2023-06-04T06:27:45;0.40;;;0.40;;
12681;SDS011;6405;59.208;18.216;2023-06-04T06:30:13;0.47;;;0.40;;
12681;SDS011;6405;59.208;18.216;2023-06-04T06:32:39;1.10;;;0.40;;
12681;SDS011;6405;59.208;18.216;2023-06-04T06:35:05;0.70;;;0.40;;
12681;SDS011;6405;59.208;18.216;2023-06-04T06:37:31;0.70;;;0.30;;
12681;SDS011;6405;59.208;18.216;2023-06-04T06:39:57;0.33;;;0.20;;
12681;SDS011;6405;59.208;18.216;2023-06-04T06:42:22;0.77;;;0.40;;
12681;SDS011;6405;59.208;18.216;2023-06-04T06:44:48;0.40;;;0.20;;
12681;SDS011;6405;59.208;18.216;2023-06-04T06:47:14;0.20;;;0.20;;
12681;SDS011;6405;59.208;18.216;2023-06-04T06:49:40;1.67;;;0.23;;
12681;SDS011;6405;59.208;18.216;2023-06-04T06:52:06;0.30;;;0.23;;
12681;SDS011;6405;59.208;18.216;2023-06-04T06:54:32;0.17;;;0.17;;
12681;SDS011;6405;59.208;18.216;2023-06-04T06:56:58;0.27;;;0.27;;
12681;SDS011;6405;59.208;18.216;2023-06-04T06:59:24;0.57;;;0.40;;
12681;SDS011;6405;59.208;18.216;2023-06-04T07:01:50;0.20;;;0.20;;
12681;SDS011;6405;59.208;18.216;2023-06-04T07:04:16;0.37;;;0.37;;
12681;SDS011;6405;59.208;18.216;2023-06-04T07:06:42;0.30;;;0.30;;
12681;SDS011;6405;59.208;18.216;2023-06-04T07:09:08;0.43;;;0.20;;
12681;SDS011;6405;59.208;18.216;2023-06-04T07:11:34;0.20;;;0.20;;
12681;SDS011;6405;59.208;18.216;2023-06-04T07:14:00;1.23;;;0.30;;
12681;SDS011;6405;59.208;18.216;2023-06-04T07:16:29;0.83;;;0.50;;
12681;SDS011;6405;59.208;18.216;2023-06-04T07:18:55;0.20;;;0.20;;
12681;SDS011;6405;59.208;18.216;2023-06-04T07:21:21;1.00;;;0.40;;
12681;SDS011;6405;59.208;18.216;2023-06-04T07:23:49;1.33;;;0.40;;
12681;SDS011;6405;59.208;18.216;2023-06-04T07:26:18;1.60;;;0.20;;
12681;SDS011;6405;59.208;18.216;2023-06-04T07:28:44;0.37;;;0.20;;
12681;SDS011;6405;59.208;18.216;2023-06-04T07:31:10;0.30;;;0.30;;
12681;SDS011;6405;59.208;18.216;2023-06-04T07:33:36;0.20;;;0.10;;
12681;SDS011;6405;59.208;18.216;2023-06-04T07:36:09;0.30;;;0.20;;
12681;SDS011;6405;59.208;18.216;2023-06-04T07:38:35;0.90;;;0.30;;
12681;SDS011;6405;59.208;18.216;2023-06-04T07:41:01;0.33;;;0.30;;
12681;SDS011;6405;59.208;18.216;2023-06-04T07:43:26;0.27;;;0.10;;
12681;SDS011;6405;59.208;18.216;2023-06-04T07:45:52;0.43;;;0.23;;
12681;SDS011;6405;59.208;18.216;2023-06-04T07:48:18;0.93;;;0.30;;
12681;SDS011;6405;59.208;18.216;2023-06-04T07:50:43;0.37;;;0.20;;
12681;SDS011;6405;59.208;18.216;2023-06-04T07:53:09;0.43;;;0.20;;
12681;SDS011;6405;59.208;18.216;2023-06-04T07:55:35;1.20;;;0.30;;
12681;SDS011;6405;59.208;18.216;2023-06-04T07:58:00;0.63;;;0.30;;
12681;SDS011;6405;59.208;18.216;2023-06-04T08:00:26;0.43;;;0.30;;
12681;SDS011;6405;59.208;18.216;2023-06-04T08:02:51;0.40;;;0.40;;
12681;SDS011;6405;59.208;18.216;2023-06-04T08:05:18;1.90;;;0.20;;
12681;SDS011;6405;59.208;18.216;2023-06-04T08:07:45;0.20;;;0.20;;
12681;SDS011;6405;59.208;18.216;2023-06-04T08:10:12;0.30;;;0.30;;
12681;SDS011;6405;59.208;18.216;2023-06-04T08:12:38;0.20;;;0.20;;
12681;SDS011;6405;59.208;18.216;2023-06-04T08:15:04;1.23;;;0.20;;
12681;SDS011;6405;59.208;18.216;2023-06-04T08:17:30;0.20;;;0.20;;
12681;SDS011;6405;59.208;18.216;2023-06-04T08:19:56;0.23;;;0.23;;
12681;SDS011;6405;59.208;18.216;2023-06-04T08:22:21;0.20;;;0.20;;
12681;SDS011;6405;59.208;18.216;2023-06-04T08:24:47;0.73;;;0.20;;
12681;SDS011;6405;59.208;18.216;2023-06-04T08:27:13;0.33;;;0.20;;
12681;SDS011;6405;59.208;18.216;2023-06-04T08:29:38;2.07;;;0.27;;
12681;SDS011;6405;59.208;18.216;2023-06-04T08:32:05;0.30;;;0.20;;
12681;SDS011;6405;59.208;18.216;2023-06-04T08:34:32;0.10;;;0.10;;
12681;SDS011;6405;59.208;18.216;2023-06-04T08:36:58;0.30;;;0.20;;
12681;SDS011;6405;59.208;18.216;2023-06-04T08:39:24;0.27;;;0.20;;
12681;SDS011;6405;59.208;18.216;2023-06-04T08:41:51;1.40;;;0.30;;
12681;SDS011;6405;59.208;18.216;2023-06-04T08:44:19;0.20;;;0.20;;
12681;SDS011;6405;59.208;18.216;2023-06-04T08:46:45;1.10;;;0.33;;
12681;SDS011;6405;59.208;18.216;2023-06-04T08:49:16;0.43;;;0.27;;
12681;SDS011;6405;59.208;18.216;2023-06-04T08:51:43;0.67;;;0.20;;
12681;SDS011;6405;59.208;18.216;2023-06-04T08:54:09;0.83;;;0.30;;
12681;SDS011;6405;59.208;18.216;2023-06-04T08:56:36;1.17;;;0.37;;
12681;SDS011;6405;59.208;18.216;2023-06-04T08:59:05;0.90;;;0.40;;
12681;SDS011;6405;59.208;18.216;2023-06-04T09:01:32;0.90;;;0.30;;
12681;SDS011;6405;59.208;18.216;2023-06-04T09:04:00;0.20;;;0.13;;
12681;SDS011;6405;59.208;18.216;2023-06-04T09:06:29;0.30;;;0.30;;
12681;SDS011;6405;59.208;18.216;2023-06-04T09:08:57;0.40;;;0.30;;
12681;SDS011;6405;59.208;18.216;2023-06-04T09:11:26;2.40;;;0.40;;
12681;SDS011;6405;59.208;18.216;2023-06-04T09:13:57;0.93;;;0.40;;
12681;SDS011;6405;59.208;18.216;2023-06-04T09:16:26;0.50;;;0.30;;
12681;SDS011;6405;59.208;18.216;2023-06-04T09:18:51;0.60;;;0.30;;
12681;SDS011;6405;59.208;18.216;2023-06-04T09:21:18;0.77;;;0.27;;
12681;SDS011;6405;59.208;18.216;2023-06-04T09:23:48;0.43;;;0.33;;
12681;SDS011;6405;59.208;18.216;2023-06-04T09:26:14;1.43;;;0.30;;
12681;SDS011;6405;59.208;18.216;2023-06-04T09:28:40;1.60;;;0.30;;
12681;SDS011;6405;59.208;18.216;2023-06-04T09:31:13;0.17;;;0.17;;
12681;SDS011;6405;59.208;18.216;2023-06-04T09:33:47;0.40;;;0.30;;
12681;SDS011;6405;59.208;18.216;2023-06-04T09:36:14;1.87;;;0.53;;
12681;SDS011;6405;59.208;18.216;2023-06-04T09:38:40;0.23;;;0.20;;
12681;SDS011;6405;59.208;18.216;2023-06-04T09:41:16;0.57;;;0.30;;
12681;SDS011;6405;59.208;18.216;2023-06-04T09:43:44;0.37;;;0.20;;
12681;SDS011;6405;59.208;18.216;2023-06-04T09:46:14;1.13;;;0.30;;
12681;SDS011;6405;59.208;18.216;2023-06-04T09:48:41;0.70;;;0.30;;
12681;SDS011;6405;59.208;18.216;2023-06-04T09:51:12;1.47;;;0.37;;
12681;SDS011;6405;59.208;18.216;2023-06-04T09:53:53;1.07;;;0.30;;
12681;SDS011;6405;59.208;18.216;2023-06-04T09:56:20;0.30;;;0.30;;
12681;SDS011;6405;59.208;18.216;2023-06-04T09:58:50;0.57;;;0.20;;
12681;SDS011;6405;59.208;18.216;2023-06-04T10:01:21;1.80;;;0.40;;
12681;SDS011;6405;59.208;18.216;2023-06-04T10:03:51;0.40;;;0.40;;
12681;SDS011;6405;59.208;18.216;2023-06-04T10:06:18;0.50;;;0.40;;
12681;SDS011;6405;59.208;18.216;2023-06-04T10:08:46;0.83;;;0.27;;
12681;SDS011;6405;59.208;18.216;2023-06-04T10:11:13;0.43;;;0.33;;
12681;SDS011;6405;59.208;18.216;2023-06-04T10:14:22;1.27;;;0.43;;
12681;SDS011;6405;59.208;18.216;2023-06-04T10:16:32;0.43;;;0.30;;
12681;SDS011;6405;59.208;18.216;2023-06-04T10:18:58;1.40;;;0.30;;
12681;SDS011;6405;59.208;18.216;2023-06-04T10:21:26;0.37;;;0.30;;
12681;SDS011;6405;59.208;18.216;2023-06-04T10:23:53;0.30;;;0.30;;
12681;SDS011;6405;59.208;18.216;2023-06-04T10:26:19;0.30;;;0.30;;
12681;SDS011;6405;59.208;18.216;2023-06-04T10:28:44;2.77;;;0.40;;
12681;SDS011;6405;59.208;18.216;2023-06-04T10:31:10;0.40;;;0.40;;
12681;SDS011;6405;59.208;18.216;2023-06-04T10:33:36;0.33;;;0.30;;
12681;SDS011;6405;59.208;18.216;2023-06-04T10:36:15;1.40;;;0.30;;
12681;SDS011;6405;59.208;18.216;2023-06-04T10:38:49;2.40;;;0.40;;
12681;SDS011;6405;59.208;18.216;2023-06-04T10:41:19;1.00;;;0.40;;
12681;SDS011;6405;59.208;18.216;2023-06-04T10:43:47;2.40;;;0.50;;
12681;SDS011;6405;59.208;18.216;2023-06-04T10:46:14;0.47;;;0.30;;
12681;SDS011;6405;59.208;18.216;2023-06-04T10:49:00;1.03;;;0.30;;
12681;SDS011;6405;59.208;18.216;2023-06-04T10:51:29;0.57;;;0.50;;
12681;SDS011;6405;59.208;18.216;2023-06-04T10:53:59;0.47;;;0.40;;
12681;SDS011;6405;59.208;18.216;2023-06-04T10:56:28;0.40;;;0.40;;
12681;SDS011;6405;59.208;18.216;2023-06-04T10:58:57;0.57;;;0.30;;
12681;SDS011;6405;59.208;18.216;2023-06-04T11:01:26;2.50;;;0.50;;
12681;SDS011;6405;59.208;18.216;2023-06-04T11:03:53;1.53;;;0.47;;
12681;SDS011;6405;59.208;18.216;2023-06-04T11:06:21;0.73;;;0.40;;
12681;SDS011;6405;59.208;18.216;2023-06-04T11:08:47;0.90;;;0.43;;
12681;SDS011;6405;59.208;18.216;2023-06-04T11:11:16;1.17;;;0.47;;
12681;SDS011;6405;59.208;18.216;2023-06-04T11:13:42;1.43;;;0.50;;
12681;SDS011;6405;59.208;18.216;2023-06-04T11:16:14;0.70;;;0.40;;
12681;SDS011;6405;59.208;18.216;2023-06-04T11:18:54;0.50;;;0.40;;
12681;SDS011;6405;59.208;18.216;2023-06-04T11:21:20;0.37;;;0.37;;
12681;SDS011;6405;59.208;18.216;2023-06-04T11:23:46;0.53;;;0.40;;
12681;SDS011;6405;59.208;18.216;2023-06-04T11:26:12;0.47;;;0.30;;
12681;SDS011;6405;59.208;18.216;2023-06-04T11:28:38;1.07;;;0.40;;
12681;SDS011;6405;59.208;18.216;2023-06-04T11:31:05;1.60;;;0.40;;
12681;SDS011;6405;59.208;18.216;2023-06-04T11:33:46;0.40;;;0.40;;
12681;SDS011;6405;59.208;18.216;2023-06-04T11:36:22;0.60;;;0.53;;
12681;SDS011;6405;59.208;18.216;2023-06-04T11:41:31;0.70;;;0.40;;
12681;SDS011;6405;59.208;18.216;2023-06-04T11:44:00;1.00;;;0.50;;
12681;SDS011;6405;59.208;18.216;2023-06-04T11:46:34;0.40;;;0.40;;
12681;SDS011;6405;59.208;18.216;2023-06-04T11:49:01;12.97;;;0.70;;
12681;SDS011;6405;59.208;18.216;2023-06-04T11:51:27;0.77;;;0.40;;
12681;SDS011;6405;59.208;18.216;2023-06-04T11:53:54;0.40;;;0.37;;
12681;SDS011;6405;59.208;18.216;2023-06-04T11:56:20;0.33;;;0.30;;
12681;SDS011;6405;59.208;18.216;2023-06-04T11:58:46;0.73;;;0.40;;
12681;SDS011;6405;59.208;18.216;2023-06-04T12:01:12;0.40;;;0.40;;
12681;SDS011;6405;59.208;18.216;2023-06-04T12:03:39;1.63;;;0.30;;
12681;SDS011;6405;59.208;18.216;2023-06-04T12:06:12;2.00;;;0.30;;
12681;SDS011;6405;59.208;18.216;2023-06-04T12:11:25;0.40;;;0.40;;
12681;SDS011;6405;59.208;18.216;2023-06-04T12:13:54;0.53;;;0.40;;
12681;SDS011;6405;59.208;18.216;2023-06-04T12:16:20;0.63;;;0.50;;
12681;SDS011;6405;59.208;18.216;2023-06-04T12:18:46;0.40;;;0.40;;
12681;SDS011;6405;59.208;18.216;2023-06-04T12:21:17;0.50;;;0.50;;
12681;SDS011;6405;59.208;18.216;2023-06-04T12:23:48;0.80;;;0.43;;
12681;SDS011;6405;59.208;18.216;2023-06-04T12:26:20;1.83;;;0.40;;
12681;SDS011;6405;59.208;18.216;2023-06-04T12:29:00;1.20;;;0.63;;
12681;SDS011;6405;59.208;18.216;2023-06-04T12:31:26;0.93;;;0.63;;
12681;SDS011;6405;59.208;18.216;2023-06-04T12:33:57;0.50;;;0.50;;
12681;SDS011;6405;59.208;18.216;2023-06-04T12:36:26;0.43;;;0.43;;
12681;SDS011;6405;59.208;18.216;2023-06-04T12:38:53;1.80;;;0.50;;
12681;SDS011;6405;59.208;18.216;2023-06-04T12:41:25;0.40;;;0.40;;
12681;SDS011;6405;59.208;18.216;2023-06-04T12:43:51;0.60;;;0.40;;
12681;SDS011;6405;59.208;18.216;2023-06-04T12:46:17;0.40;;;0.40;;
12681;SDS011;6405;59.208;18.216;2023-06-04T12:48:43;1.87;;;0.40;;
12681;SDS011;6405;59.208;18.216;2023-06-04T12:51:08;1.47;;;0.70;;
12681;SDS011;6405;59.208;18.216;2023-06-04T12:53:40;0.27;;;0.20;;
12681;SDS011;6405;59.208;18.216;2023-06-04T12:56:06;1.83;;;0.50;;
12681;SDS011;6405;59.208;18.216;2023-06-04T12:58:32;0.50;;;0.43;;
12681;SDS011;6405;59.208;18.216;2023-06-04T13:00:58;1.63;;;0.40;;
12681;SDS011;6405;59.208;18.216;2023-06-04T13:03:25;0.40;;;0.40;;
12681;SDS011;6405;59.208;18.216;2023-06-04T13:05:51;1.00;;;0.50;;
12681;SDS011;6405;59.208;18.216;2023-06-04T13:08:18;0.30;;;0.30;;
12681;SDS011;6405;59.208;18.216;2023-06-04T13:10:45;2.03;;;0.40;;
12681;SDS011;6405;59.208;18.216;2023-06-04T13:13:11;1.00;;;0.33;;
12681;SDS011;6405;59.208;18.216;2023-06-04T13:15:37;0.70;;;0.50;;
12681;SDS011;6405;59.208;18.216;2023-06-04T13:18:02;0.97;;;0.50;;
12681;SDS011;6405;59.208;18.216;2023-06-04T13:20:28;0.57;;;0.27;;
12681;SDS011;6405;59.208;18.216;2023-06-04T13:22:54;0.87;;;0.57;;
12681;SDS011;6405;59.208;18.216;2023-06-04T13:25:20;0.83;;;0.60;;
12681;SDS011;6405;59.208;18.216;2023-06-04T13:27:45;0.43;;;0.33;;
12681;SDS011;6405;59.208;18.216;2023-06-04T13:30:12;0.40;;;0.30;;
12681;SDS011;6405;59.208;18.216;2023-06-04T13:32:38;1.43;;;0.50;;
12681;SDS011;6405;59.208;18.216;2023-06-04T13:35:03;1.03;;;0.43;;
12681;SDS011;6405;59.208;18.216;2023-06-04T13:37:29;1.53;;;0.40;;
12681;SDS011;6405;59.208;18.216;2023-06-04T13:39:55;0.60;;;0.30;;
12681;SDS011;6405;59.208;18.216;2023-06-04T13:42:21;1.27;;;0.40;;
12681;SDS011;6405;59.208;18.216;2023-06-04T13:44:46;1.20;;;0.50;;
12681;SDS011;6405;59.208;18.216;2023-06-04T13:47:12;3.70;;;0.50;;
12681;SDS011;6405;59.208;18.216;2023-06-04T13:49:38;0.60;;;0.40;;
12681;SDS011;6405;59.208;18.216;2023-06-04T13:52:04;0.50;;;0.40;;
12681;SDS011;6405;59.208;18.216;2023-06-04T13:54:29;0.40;;;0.30;;
12681;SDS011;6405;59.208;18.216;2023-06-04T13:56:56;0.30;;;0.30;;
12681;SDS011;6405;59.208;18.216;2023-06-04T13:59:22;2.67;;;0.60;;
12681;SDS011;6405;59.208;18.216;2023-06-04T14:01:47;0.80;;;0.40;;
12681;SDS011;6405;59.208;18.216;2023-06-04T14:04:13;0.50;;;0.40;;
12681;SDS011;6405;59.208;18.216;2023-06-04T14:06:39;0.93;;;0.30;;
12681;SDS011;6405;59.208;18.216;2023-06-04T14:09:04;1.63;;;0.40;;
12681;SDS011;6405;59.208;18.216;2023-06-04T14:11:34;0.50;;;0.40;;
12681;SDS011;6405;59.208;18.216;2023-06-04T14:14:01;0.83;;;0.50;;
12681;SDS011;6405;59.208;18.216;2023-06-04T14:16:26;0.60;;;0.40;;
12681;SDS011;6405;59.208;18.216;2023-06-04T14:18:53;1.90;;;0.60;;
12681;SDS011;6405;59.208;18.216;2023-06-04T14:21:19;0.50;;;0.40;;
12681;SDS011;6405;59.208;18.216;2023-06-04T14:23:46;0.33;;;0.33;;
12681;SDS011;6405;59.208;18.216;2023-06-04T14:26:11;0.33;;;0.30;;
12681;SDS011;6405;59.208;18.216;2023-06-04T14:28:37;0.30;;;0.30;;
12681;SDS011;6405;59.208;18.216;2023-06-04T14:31:03;0.23;;;0.23;;
12681;SDS011;6405;59.208;18.216;2023-06-04T14:33:29;0.90;;;0.40;;
12681;SDS011;6405;59.208;18.216;2023-06-04T14:35:55;0.50;;;0.40;;
12681;SDS011;6405;59.208;18.216;2023-06-04T14:38:21;3.47;;;0.90;;
12681;SDS011;6405;59.208;18.216;2023-06-04T14:40:47;0.37;;;0.33;;
12681;SDS011;6405;59.208;18.216;2023-06-04T14:43:12;0.40;;;0.30;;
12681;SDS011;6405;59.208;18.216;2023-06-04T14:45:38;0.87;;;0.30;;
12681;SDS011;6405;59.208;18.216;2023-06-04T14:48:06;2.20;;;0.50;;
12681;SDS011;6405;59.208;18.216;2023-06-04T14:50:32;0.40;;;0.30;;
12681;SDS011;6405;59.208;18.216;2023-06-04T14:52:58;0.90;;;0.50;;